Time;durP1;ratioP1;P1;durP2;ratioP2;P2;SDS_P1;SDS_P2;PMS_P1;PMS_P2;Temp;Humidity;BMP_temperature;BMP_pressure;BME280_temperature;BME280_humidity;BME280_pressure;Samples;Min_cycle;Max_cycle;Signal;HPM_P1;HPM_P2
2022/12/07 00:01:45;;;;;;;19.65;9.50;;;;;;;;;;7299240;19;20498;-64
2022/12/07 00:04:16;;;;;;;17.08;8.60;;;;;;;;;;7302197;19;20519;-64
2022/12/07 00:06:49;;;;;;;17.23;9.50;;;;;;;;;;7302385;19;20304;-63
2022/12/07 00:09:19;;;;;;;17.88;9.40;;;;;;;;;;7301920;19;20434;-63
2022/12/07 00:11:50;;;;;;;15.13;7.90;;;;;;;;;;7302132;19;20473;-63
2022/12/07 00:14:19;;;;;;;16.92;8.15;;;;;;;;;;7301583;19;20011;-64
2022/12/07 00:16:50;;;;;;;15.35;8.48;;;;;;;;;;7299917;19;20522;-63
2022/12/07 00:19:18;;;;;;;15.40;9.02;;;;;;;;;;7299529;19;20331;-64
2022/12/07 00:21:46;;;;;;;15.45;8.55;;;;;;;;;;7301044;19;20073;-63
2022/12/07 00:24:14;;;;;;;15.02;8.68;;;;;;;;;;7300928;19;20508;-64
2022/12/07 00:26:44;;;;;;;17.73;8.80;;;;;;;;;;7301568;19;20565;-65
2022/12/07 00:29:19;;;;;;;17.58;9.80;;;;;;;;;;7301344;19;20458;-63
2022/12/07 00:31:47;;;;;;;17.25;8.90;;;;;;;;;;7302634;19;20413;-63
2022/12/07 00:34:19;;;;;;;19.52;9.30;;;;;;;;;;7300610;19;20475;-62
2022/12/07 00:36:49;;;;;;;17.23;8.68;;;;;;;;;;7299005;19;20356;-64
2022/12/07 00:39:17;;;;;;;17.02;9.43;;;;;;;;;;7300919;19;20490;-63
2022/12/07 00:41:45;;;;;;;13.00;8.90;;;;;;;;;;7298589;19;20631;-63
2022/12/07 00:44:13;;;;;;;16.20;9.23;;;;;;;;;;7298771;19;20310;-63
2022/12/07 00:46:40;;;;;;;16.65;9.05;;;;;;;;;;7301548;19;20465;-63
2022/12/07 00:49:08;;;;;;;16.85;8.73;;;;;;;;;;7300221;19;20457;-63
2022/12/07 00:51:36;;;;;;;18.45;9.68;;;;;;;;;;7302268;19;20002;-64
2022/12/07 00:54:04;;;;;;;15.50;8.70;;;;;;;;;;7300614;19;20497;-66
2022/12/07 00:56:32;;;;;;;15.10;8.45;;;;;;;;;;7299976;19;20558;-63
2022/12/07 00:59:03;;;;;;;18.60;9.70;;;;;;;;;;7299271;19;20476;-63
2022/12/07 01:01:35;;;;;;;16.58;8.43;;;;;;;;;;7297393;19;20879;-64
2022/12/07 01:04:03;;;;;;;18.63;9.10;;;;;;;;;;7300452;19;20034;-62
2022/12/07 01:06:31;;;;;;;20.45;9.35;;;;;;;;;;7300006;19;20006;-64
2022/12/07 01:09:00;;;;;;;21.53;10.43;;;;;;;;;;7300194;19;20466;-64
2022/12/07 01:11:29;;;;;;;17.30;10.00;;;;;;;;;;7297134;19;21564;-64
2022/12/07 01:14:00;;;;;;;20.50;9.77;;;;;;;;;;7300180;19;20446;-64
2022/12/07 01:16:30;;;;;;;18.85;8.88;;;;;;;;;;7298388;19;20654;-63
2022/12/07 01:18:59;;;;;;;14.98;8.57;;;;;;;;;;7299989;19;20453;-63
2022/12/07 01:21:34;;;;;;;11.60;7.03;;;;;;;;;;7299149;19;20393;-63
2022/12/07 01:24:07;;;;;;;11.23;6.80;;;;;;;;;;7300592;19;20334;-63
2022/12/07 01:26:35;;;;;;;15.18;7.63;;;;;;;;;;7298744;19;20708;-63
2022/12/07 01:29:02;;;;;;;12.95;6.97;;;;;;;;;;7298908;19;20110;-63
2022/12/07 01:31:30;;;;;;;12.15;7.32;;;;;;;;;;7298778;19;20438;-63
2022/12/07 01:34:00;;;;;;;11.70;6.75;;;;;;;;;;7299741;19;20007;-64
2022/12/07 01:36:35;;;;;;;12.75;6.35;;;;;;;;;;7298106;19;21146;-64
2022/12/07 01:39:07;;;;;;;10.30;6.22;;;;;;;;;;7298550;19;20466;-64
2022/12/07 01:41:40;;;;;;;11.30;6.97;;;;;;;;;;7298812;19;20474;-64
2022/12/07 01:44:09;;;;;;;11.98;6.28;;;;;;;;;;7298231;19;20509;-63
2022/12/07 01:46:38;;;;;;;10.30;5.90;;;;;;;;;;7298378;19;20430;-64
2022/12/07 01:49:14;;;;;;;12.15;6.93;;;;;;;;;;7298370;19;20010;-63
2022/12/07 01:51:45;;;;;;;12.95;6.45;;;;;;;;;;7298803;19;20437;-67
2022/12/07 01:54:15;;;;;;;8.90;5.57;;;;;;;;;;7296894;19;20446;-64
2022/12/07 01:56:51;;;;;;;12.35;6.40;;;;;;;;;;7297024;19;20425;-64
2022/12/07 01:59:22;;;;;;;12.73;6.28;;;;;;;;;;7298032;19;20448;-65
2022/12/07 02:01:52;;;;;;;12.27;6.05;;;;;;;;;;7298561;19;20363;-63
2022/12/07 02:04:24;;;;;;;10.63;5.82;;;;;;;;;;7298387;19;20392;-64
2022/12/07 02:06:53;;;;;;;9.35;4.85;;;;;;;;;;7298312;19;20431;-63
2022/12/07 02:09:21;;;;;;;9.30;4.90;;;;;;;;;;7295905;19;20295;-64
2022/12/07 02:11:50;;;;;;;8.07;4.78;;;;;;;;;;7298018;19;20327;-63
2022/12/07 02:14:17;;;;;;;;;;;;;;;;;;7296659;19;20359;-65
2022/12/07 02:17:23;;;;;;;7.03;4.13;;;;;;;;;;7297639;19;20222;-63
2022/12/07 02:20:06;;;;;;;8.77;4.05;;;;;;;;;;7295728;19;21085;-63
2022/12/07 02:22:58;;;;;;;7.32;4.05;;;;;;;;;;7297831;19;20543;-63
2022/12/07 02:25:37;;;;;;;8.00;4.07;;;;;;;;;;7304164;19;20640;-63
2022/12/07 02:28:30;;;;;;;7.88;4.75;;;;;;;;;;7304297;19;20309;-64
2022/12/07 02:31:08;;;;;;;12.52;5.00;;;;;;;;;;7304869;19;20074;-64
2022/12/07 02:34:00;;;;;;;8.05;4.45;;;;;;;;;;7302900;19;21106;-64
2022/12/07 02:36:34;;;;;;;8.75;5.03;;;;;;;;;;7302148;19;21148;-64
2022/12/07 02:39:17;;;;;;;9.82;4.60;;;;;;;;;;7302568;19;20461;-64
2022/12/07 02:41:55;;;;;;;8.32;4.95;;;;;;;;;;7302840;19;20503;-64
2022/12/07 02:44:26;;;;;;;10.18;5.05;;;;;;;;;;7302011;19;20453;-64
2022/12/07 02:47:03;;;;;;;9.05;5.47;;;;;;;;;;7303010;19;20446;-63
2022/12/07 02:49:32;;;;;;;8.57;4.93;;;;;;;;;;7301294;19;21297;-64
2022/12/07 02:52:00;;;;;;;11.73;5.65;;;;;;;;;;7304373;19;20568;-63
2022/12/07 02:54:28;;;;;;;11.43;5.18;;;;;;;;;;7303539;19;20855;-63
2022/12/07 02:57:11;;;;;;;8.55;5.07;;;;;;;;;;7303983;19;20332;-63
2022/12/07 03:00:14;;;;;;;12.23;6.00;;;;;;;;;;7302440;19;21082;-64
2022/12/07 03:02:59;;;;;;;9.77;5.13;;;;;;;;;;7302114;19;22003;-63
2022/12/07 03:06:10;;;;;;;12.13;5.90;;;;;;;;;;7302170;19;20426;-64
2022/12/07 03:09:11;;;;;;;11.80;5.32;;;;;;;;;;7299607;19;22115;-64
2022/12/07 03:11:52;;;;;;;10.93;5.97;;;;;;;;;;7302362;19;21479;-66
2022/12/07 03:14:33;;;;;;;9.25;4.95;;;;;;;;;;7303265;19;20019;-64
2022/12/07 03:17:16;;;;;;;11.02;5.18;;;;;;;;;;7301943;19;20389;-64
2022/12/07 03:19:46;;;;;;;12.48;6.10;;;;;;;;;;7300631;19;21095;-65
2022/12/07 03:22:14;;;;;;;11.20;5.40;;;;;;;;;;7301206;19;20292;-65
2022/12/07 03:24:49;;;;;;;10.50;5.95;;;;;;;;;;7301259;19;20490;-64
2022/12/07 03:27:29;;;;;;;11.23;5.78;;;;;;;;;;7301330;19;20190;-64
2022/12/07 03:30:16;;;;;;;12.82;6.25;;;;;;;;;;7303666;19;20011;-64
2022/12/07 03:32:56;;;;;;;8.80;5.70;;;;;;;;;;7299559;19;22154;-64
2022/12/07 03:35:34;;;;;;;10.98;5.72;;;;;;;;;;7300789;19;20427;-64
2022/12/07 03:38:44;;;;;;;18.65;6.93;;;;;;;;;;7302366;19;20386;-64
2022/12/07 03:41:29;;;;;;;11.60;6.30;;;;;;;;;;7300989;19;20359;-64
2022/12/07 03:43:58;;;;;;;13.90;6.80;;;;;;;;;;7300452;19;20383;-63
2022/12/07 03:46:36;;;;;;;14.13;8.18;;;;;;;;;;7303311;19;20912;-65
2022/12/07 03:49:13;;;;;;;15.88;7.70;;;;;;;;;;7299076;19;20469;-65
2022/12/07 03:52:07;;;;;;;11.45;6.57;;;;;;;;;;7300718;19;20579;-64
2022/12/07 03:54:51;;;;;;;13.13;6.68;;;;;;;;;;7301782;19;21277;-65
2022/12/07 03:57:20;;;;;;;12.07;6.35;;;;;;;;;;7300964;19;20086;-64
2022/12/07 03:59:48;;;;;;;;;;;;;;;;;;7301851;19;20017;-64
2022/12/07 04:02:17;;;;;;;12.02;6.40;;;;;;;;;;7299998;19;19932;-64
2022/12/07 04:04:45;;;;;;;9.38;6.13;;;;;;;;;;7299721;19;20620;-64
2022/12/07 04:07:13;;;;;;;14.00;5.78;;;;;;;;;;7300023;19;20453;-64
2022/12/07 04:09:40;;;;;;;9.70;5.90;;;;;;;;;;7302018;19;20311;-64
2022/12/07 04:12:08;;;;;;;9.70;5.70;;;;;;;;;;7301283;19;20437;-65
2022/12/07 04:14:36;;;;;;;8.55;4.97;;;;;;;;;;7302615;19;20034;-65
2022/12/07 04:17:04;;;;;;;8.02;4.50;;;;;;;;;;7300958;19;20577;-65
2022/12/07 04:19:33;;;;;;;9.65;5.30;;;;;;;;;;7301753;19;20414;-64
2022/12/07 04:22:04;;;;;;;11.00;5.00;;;;;;;;;;7302001;19;20306;-64
2022/12/07 04:24:33;;;;;;;10.38;5.57;;;;;;;;;;7300118;19;20921;-65
2022/12/07 04:27:01;;;;;;;;;;;;;;;;;;7302375;19;20302;-65
2022/12/07 04:29:29;;;;;;;11.30;5.95;;;;;;;;;;7300173;19;20781;-65
2022/12/07 04:31:56;;;;;;;12.18;6.13;;;;;;;;;;7302227;19;20493;-64
2022/12/07 04:34:24;;;;;;;9.13;5.45;;;;;;;;;;7301537;19;20416;-63
2022/12/07 04:36:52;;;;;;;12.63;5.72;;;;;;;;;;7301111;19;20330;-65
2022/12/07 04:39:24;;;;;;;10.32;5.78;;;;;;;;;;7300690;19;20195;-65
2022/12/07 04:41:52;;;;;;;8.25;5.05;;;;;;;;;;7301344;19;20310;-63
2022/12/07 04:44:22;;;;;;;8.15;4.70;;;;;;;;;;7298668;19;20434;-63
2022/12/07 04:46:51;;;;;;;13.23;6.00;;;;;;;;;;7300499;19;20672;-64
2022/12/07 04:49:19;;;;;;;9.40;5.45;;;;;;;;;;7300282;19;20453;-66
2022/12/07 04:52:06;;;;;;;10.40;5.22;;;;;;;;;;7300343;19;20514;-64
2022/12/07 04:54:34;;;;;;;10.70;5.82;;;;;;;;;;7300452;19;20472;-65
2022/12/07 04:57:02;;;;;;;14.82;6.40;;;;;;;;;;7300563;19;20446;-65
2022/12/07 04:59:29;;;;;;;10.80;5.97;;;;;;;;;;7300387;19;20331;-65
2022/12/07 05:01:57;;;;;;;10.35;5.18;;;;;;;;;;7300631;19;20501;-64
2022/12/07 05:04:25;;;;;;;11.02;6.75;;;;;;;;;;7299565;19;20437;-64
2022/12/07 05:06:53;;;;;;;14.82;5.55;;;;;;;;;;7300547;19;20461;-64
2022/12/07 05:09:20;;;;;;;13.68;7.25;;;;;;;;;;7299853;19;20371;-64
2022/12/07 05:11:48;;;;;;;14.77;6.45;;;;;;;;;;7299736;19;20434;-64
2022/12/07 05:14:20;;;;;;;16.55;7.22;;;;;;;;;;7300270;19;20295;-64
2022/12/07 05:16:50;;;;;;;12.30;6.28;;;;;;;;;;7301596;19;20303;-65
2022/12/07 05:19:19;;;;;;;11.13;5.72;;;;;;;;;;7299911;19;20446;-64
2022/12/07 05:21:46;;;;;;;10.10;5.78;;;;;;;;;;7299951;19;20449;-64
2022/12/07 05:24:16;;;;;;;9.25;5.22;;;;;;;;;;7299047;19;20301;-64
2022/12/07 05:26:44;;;;;;;;;;;;;;;;;;7300613;19;20036;-64
2022/12/07 05:29:16;;;;;;;11.77;5.35;;;;;;;;;;7299514;19;20206;-64
2022/12/07 05:31:45;;;;;;;13.25;5.95;;;;;;;;;;7299289;19;20298;-63
2022/12/07 05:34:13;;;;;;;10.98;4.95;;;;;;;;;;7299361;19;20375;-65
2022/12/07 05:36:41;;;;;;;16.73;8.02;;;;;;;;;;7299654;19;20330;-66
2022/12/07 05:39:10;;;;;;;12.27;6.35;;;;;;;;;;7298836;19;20362;-65
2022/12/07 05:44:24;;;;;;;9.75;5.03;;;;;;;;;;7298382;19;20338;-64
2022/12/07 05:46:52;;;;;;;9.60;5.10;;;;;;;;;;7297819;19;20042;-65
2022/12/07 05:49:20;;;;;;;13.18;6.20;;;;;;;;;;7298741;19;20338;-64
2022/12/07 05:51:48;;;;;;;12.98;6.60;;;;;;;;;;7299604;19;20511;-66
2022/12/07 05:54:17;;;;;;;;;;;;;;;;;;7299066;19;20442;-64
2022/12/07 05:56:44;;;;;;;10.95;5.97;;;;;;;;;;7298583;19;20433;-64
2022/12/07 05:59:25;;;;;;;11.40;5.88;;;;;;;;;;7298675;19;20323;-64
2022/12/07 06:01:56;;;;;;;8.68;4.78;;;;;;;;;;7298064;19;20395;-63
2022/12/07 06:04:28;;;;;;;7.43;4.28;;;;;;;;;;7299460;19;20318;-64
2022/12/07 06:06:56;;;;;;;7.70;4.50;;;;;;;;;;7298572;19;20440;-63
2022/12/07 06:09:26;;;;;;;9.80;5.00;;;;;;;;;;7298113;19;20096;-65
2022/12/07 06:15:01;;;;;;;8.40;4.78;;;;;;;;;;7298228;19;21724;-64
2022/12/07 06:17:29;;;;;;;8.77;4.57;;;;;;;;;;7297411;19;21998;-64
2022/12/07 06:19:57;;;;;;;9.18;4.60;;;;;;;;;;7298322;19;20381;-64
2022/12/07 06:22:25;;;;;;;7.43;4.40;;;;;;;;;;7298377;19;20421;-64
2022/12/07 06:24:52;;;;;;;12.25;5.35;;;;;;;;;;7297836;19;20420;-64
2022/12/07 06:27:20;;;;;;;8.07;4.20;;;;;;;;;;7297841;19;20744;-64
2022/12/07 06:29:48;;;;;;;7.05;4.10;;;;;;;;;;7298276;19;20315;-64
2022/12/07 06:32:16;;;;;;;7.72;4.20;;;;;;;;;;7297735;19;20497;-64
2022/12/07 06:34:56;;;;;;;8.77;5.07;;;;;;;;;;7297754;19;20465;-65
2022/12/07 06:37:24;;;;;;;9.90;5.43;;;;;;;;;;7297224;19;20310;-65
2022/12/07 06:39:51;;;;;;;7.10;4.28;;;;;;;;;;7297523;19;20095;-65
2022/12/07 06:42:19;;;;;;;8.60;4.18;;;;;;;;;;7297419;19;20031;-64
2022/12/07 06:44:47;;;;;;;9.27;3.72;;;;;;;;;;7296755;19;20291;-65
2022/12/07 06:47:15;;;;;;;6.30;3.50;;;;;;;;;;7137823;19;20422;-64
2022/12/07 06:50:03;;;;;;;8.52;4.53;;;;;;;;;;7296466;19;20006;-64
2022/12/07 06:52:31;;;;;;;;;;;;;;;;;;7298104;19;20337;-64
2022/12/07 06:54:59;;;;;;;10.57;4.80;;;;;;;;;;7298010;19;20401;-64
2022/12/07 06:57:27;;;;;;;8.75;4.57;;;;;;;;;;7295609;19;20298;-65
2022/12/07 06:59:55;;;;;;;8.18;4.95;;;;;;;;;;7296862;19;20446;-64
2022/12/07 07:04:15;;;;;;;8.50;4.15;;;;;;;;;;7160073;19;20774;-64
2022/12/07 07:06:43;;;;;;;7.70;4.47;;;;;;;;;;7335124;19;20422;-63
2022/12/07 07:09:10;;;;;;;8.05;4.60;;;;;;;;;;7258496;19;20405;-63
2022/12/07 07:11:38;;;;;;;8.48;4.40;;;;;;;;;;7333993;19;20556;-63
2022/12/07 07:14:06;;;;;;;7.57;4.22;;;;;;;;;;7265519;19;20043;-63
2022/12/07 07:16:34;;;;;;;8.98;4.80;;;;;;;;;;7092278;19;176459;-64
2022/12/07 07:19:02;;;;;;;10.98;4.78;;;;;;;;;;7333909;19;20333;-64
2022/12/07 07:21:30;;;;;;;9.10;4.22;;;;;;;;;;7333811;19;21311;-65
2022/12/07 07:23:57;;;;;;;8.15;4.32;;;;;;;;;;7258085;19;20481;-64
2022/12/07 07:26:25;;;;;;;6.78;3.38;;;;;;;;;;7279129;19;20367;-63
2022/12/07 07:28:53;;;;;;;7.93;3.95;;;;;;;;;;7333758;19;20018;-63
2022/12/07 07:31:21;;;;;;;9.15;3.58;;;;;;;;;;7258546;19;20394;-64
2022/12/07 07:33:49;;;;;;;9.23;4.15;;;;;;;;;;7333084;19;20476;-64
2022/12/07 07:36:17;;;;;;;8.05;4.40;;;;;;;;;;7333103;19;20305;-63
2022/12/07 07:38:45;;;;;;;6.43;3.45;;;;;;;;;;7331817;19;20321;-64
2022/12/07 07:41:12;;;;;;;6.35;3.72;;;;;;;;;;7331728;19;20460;-64
2022/12/07 07:43:40;;;;;;;7.22;4.03;;;;;;;;;;7333317;19;20361;-63
2022/12/07 07:46:08;;;;;;;7.30;3.90;;;;;;;;;;7333233;19;20024;-64
2022/12/07 07:48:36;;;;;;;7.72;3.80;;;;;;;;;;7333305;19;20306;-65
2022/12/07 07:51:08;;;;;;;5.90;3.33;;;;;;;;;;7332480;19;20036;-64
2022/12/07 07:53:35;;;;;;;6.35;3.58;;;;;;;;;;7333300;19;20432;-64
2022/12/07 07:56:03;;;;;;;7.03;4.07;;;;;;;;;;7333136;19;20371;-65
2022/12/07 07:58:32;;;;;;;;;;;;;;;;;;7333400;19;20347;-63
2022/12/07 08:01:07;;;;;;;11.85;5.50;;;;;;;;;;7258774;19;19978;-63
2022/12/07 08:03:36;;;;;;;12.05;6.15;;;;;;;;;;7331224;19;21520;-64
2022/12/07 08:06:04;;;;;;;8.80;4.50;;;;;;;;;;7309925;19;20363;-65
2022/12/07 08:08:32;;;;;;;10.30;5.03;;;;;;;;;;7332694;19;20007;-64
2022/12/07 08:11:02;;;;;;;11.32;6.28;;;;;;;;;;7299014;19;20441;-64
2022/12/07 08:13:30;;;;;;;16.70;9.82;;;;;;;;;;7328669;19;21130;-63
2022/12/07 08:16:02;;;;;;;14.75;7.90;;;;;;;;;;7304209;19;20461;-64
2022/12/07 08:18:30;;;;;;;13.02;6.03;;;;;;;;;;7303119;19;21114;-65
2022/12/07 08:21:00;;;;;;;12.30;5.75;;;;;;;;;;7302069;19;20433;-65
2022/12/07 08:23:29;;;;;;;12.23;6.30;;;;;;;;;;7300558;19;20077;-66
2022/12/07 08:26:15;;;;;;;12.05;6.32;;;;;;;;;;7304339;19;20426;-65
2022/12/07 08:28:44;;;;;;;10.52;6.22;;;;;;;;;;7304062;19;20366;-65
2022/12/07 08:31:17;;;;;;;9.80;5.88;;;;;;;;;;7303496;19;20468;-65
2022/12/07 08:33:47;;;;;;;8.23;5.25;;;;;;;;;;7249603;19;20006;-65
2022/12/07 08:36:16;;;;;;;11.48;6.10;;;;;;;;;;7302308;19;20480;-64
2022/12/07 08:38:44;;;;;;;8.50;5.55;;;;;;;;;;7303325;19;20393;-64
2022/12/07 08:41:32;;;;;;;9.27;6.03;;;;;;;;;;7302104;19;20471;-65
2022/12/07 08:44:00;;;;;;;13.18;6.78;;;;;;;;;;7303223;19;20422;-64
2022/12/07 08:46:47;;;;;;;12.85;7.10;;;;;;;;;;7299984;19;20748;-65
2022/12/07 08:49:25;;;;;;;10.75;6.45;;;;;;;;;;7302629;19;20011;-64
2022/12/07 08:51:55;;;;;;;9.25;5.38;;;;;;;;;;7301277;19;20433;-64
2022/12/07 08:54:23;;;;;;;15.85;9.18;;;;;;;;;;7302627;19;20459;-64
2022/12/07 08:56:53;;;;;;;17.67;5.82;;;;;;;;;;7303059;19;20437;-64
2022/12/07 08:59:28;;;;;;;7.93;4.90;;;;;;;;;;7301462;19;20452;-64
2022/12/07 09:01:56;;;;;;;11.40;5.88;;;;;;;;;;7300345;19;20444;-63
2022/12/07 09:04:24;;;;;;;10.65;6.30;;;;;;;;;;7298449;19;20370;-64
2022/12/07 09:06:53;;;;;;;7.05;4.93;;;;;;;;;;7302876;19;20425;-66
2022/12/07 09:09:21;;;;;;;7.75;5.20;;;;;;;;;;7300145;19;20322;-64
2022/12/07 09:11:49;;;;;;;7.93;5.40;;;;;;;;;;7300943;19;20306;-64
2022/12/07 09:14:17;;;;;;;8.38;5.45;;;;;;;;;;7302067;19;20334;-64
2022/12/07 09:16:44;;;;;;;10.13;5.72;;;;;;;;;;7302151;19;20429;-64
2022/12/07 09:19:13;;;;;;;8.43;5.05;;;;;;;;;;7302188;19;20302;-65
2022/12/07 09:21:40;;;;;;;4.43;3.13;;;;;;;;;;7302670;19;20327;-66
2022/12/07 09:24:09;;;;;;;5.57;3.63;;;;;;;;;;7299671;19;20481;-64
2022/12/07 09:26:39;;;;;;;5.13;3.10;;;;;;;;;;7299771;19;20481;-66
2022/12/07 09:29:06;;;;;;;9.20;4.20;;;;;;;;;;7302831;19;20642;-65
2022/12/07 09:31:37;;;;;;;7.00;4.15;;;;;;;;;;7301406;19;20426;-68
2022/12/07 09:34:05;;;;;;;6.80;3.78;;;;;;;;;;7301075;19;20216;-64
2022/12/07 09:36:33;;;;;;;6.57;3.80;;;;;;;;;;7301436;19;20011;-66
2022/12/07 09:39:04;;;;;;;6.30;3.67;;;;;;;;;;7301527;19;20013;-69
2022/12/07 09:41:32;;;;;;;5.28;3.50;;;;;;;;;;7301229;19;20575;-65
2022/12/07 09:44:16;;;;;;;6.63;4.33;;;;;;;;;;7299962;19;20337;-65
2022/12/07 09:46:45;;;;;;;6.03;3.60;;;;;;;;;;7298585;19;20663;-65
2022/12/07 09:49:20;;;;;;;6.13;3.78;;;;;;;;;;7301580;19;20132;-65
2022/12/07 09:52:17;;;;;;;5.10;3.47;;;;;;;;;;7299753;19;20441;-66
2022/12/07 09:54:49;;;;;;;8.95;5.97;;;;;;;;;;7300468;19;21658;-67
2022/12/07 09:57:21;;;;;;;5.97;3.45;;;;;;;;;;7298611;19;20294;-66
2022/12/07 09:59:50;;;;;;;8.43;3.88;;;;;;;;;;7299188;19;20433;-64
2022/12/07 10:02:44;;;;;;;6.25;3.72;;;;;;;;;;7300028;19;20376;-64
2022/12/07 10:05:25;;;;;;;7.18;4.50;;;;;;;;;;7301215;19;20338;-64
2022/12/07 10:07:54;;;;;;;7.57;4.50;;;;;;;;;;7299562;19;20322;-65
2022/12/07 10:10:32;;;;;;;7.93;4.65;;;;;;;;;;7300246;19;20322;-66
2022/12/07 10:13:12;;;;;;;6.53;4.50;;;;;;;;;;7300409;19;20362;-64
2022/12/07 10:15:44;;;;;;;7.55;4.68;;;;;;;;;;7298545;19;20153;-65
2022/12/07 10:18:37;;;;;;;6.35;4.75;;;;;;;;;;7300035;19;20465;-65
2022/12/07 10:21:08;;;;;;;8.73;4.68;;;;;;;;;;7299151;19;20311;-65
2022/12/07 10:24:01;;;;;;;11.20;7.15;;;;;;;;;;7298867;19;20956;-65
2022/12/07 10:26:49;;;;;;;12.80;7.18;;;;;;;;;;7297795;19;21632;-64
2022/12/07 10:29:38;;;;;;;17.15;10.57;;;;;;;;;;7298550;19;20347;-66
2022/12/07 10:32:15;;;;;;;27.85;13.65;;;;;;;;;;7299569;19;20011;-65
2022/12/07 10:34:43;;;;;;;28.75;16.17;;;;;;;;;;7299763;19;19999;-65
2022/12/07 10:37:20;;;;;;;19.30;11.18;;;;;;;;;;7298831;19;20303;-65
2022/12/07 10:39:51;;;;;;;28.92;16.35;;;;;;;;;;7295931;19;20010;-65
2022/12/07 10:42:31;;;;;;;30.83;14.82;;;;;;;;;;7296068;19;20309;-66
2022/12/07 10:45:17;;;;;;;26.50;15.77;;;;;;;;;;7296254;19;20490;-66
2022/12/07 10:47:58;;;;;;;27.42;15.35;;;;;;;;;;7294430;19;20815;-64
2022/12/07 10:50:58;;;;;;;16.10;10.57;;;;;;;;;;7297359;19;20422;-65
2022/12/07 10:53:55;;;;;;;12.68;7.93;;;;;;;;;;7296976;19;20014;-64
2022/12/07 10:56:46;;;;;;;14.80;7.72;;;;;;;;;;7296334;19;20492;-64
2022/12/07 10:59:47;;;;;;;20.77;9.18;;;;;;;;;;7243713;19;20091;-64
2022/12/07 11:02:38;;;;;;;58.22;25.92;;;;;;;;;;7297250;19;20327;-65
2022/12/07 11:05:28;;;;;;;23.90;13.52;;;;;;;;;;7298395;19;20326;-65
2022/12/07 11:08:22;;;;;;;19.23;12.30;;;;;;;;;;7297774;19;20497;-64
2022/12/07 11:11:01;;;;;;;18.80;10.35;;;;;;;;;;7242947;19;21155;-64
2022/12/07 11:13:48;;;;;;;14.75;10.13;;;;;;;;;;7297249;19;20990;-65
2022/12/07 11:16:30;;;;;;;16.52;10.15;;;;;;;;;;7296357;19;20433;-65
2022/12/07 11:19:25;;;;;;;22.33;12.95;;;;;;;;;;7299065;19;20445;-64
2022/12/07 11:22:08;;;;;;;27.13;15.00;;;;;;;;;;7295107;19;20742;-64
2022/12/07 11:25:03;;;;;;;20.77;9.50;;;;;;;;;;7295440;19;20933;-65
2022/12/07 11:27:52;;;;;;;14.77;9.38;;;;;;;;;;7295084;19;20962;-65
2022/12/07 11:30:29;;;;;;;14.15;7.88;;;;;;;;;;7295948;19;20380;-65
2022/12/07 11:33:17;;;;;;;18.95;11.93;;;;;;;;;;7296139;19;20398;-64
2022/12/07 11:36:26;;;;;;;11.07;7.53;;;;;;;;;;7299006;19;20598;-66
2022/12/07 11:39:22;;;;;;;14.90;8.73;;;;;;;;;;7296153;19;20895;-65
2022/12/07 11:42:01;;;;;;;42.45;14.68;;;;;;;;;;7295051;19;21080;-66
2022/12/07 11:45:10;;;;;;;30.80;13.25;;;;;;;;;;7294602;19;20770;-64
2022/12/07 11:47:59;;;;;;;21.35;8.50;;;;;;;;;;7292199;19;21832;-64
2022/12/07 11:50:53;;;;;;;13.48;8.93;;;;;;;;;;7295997;19;21329;-64
2022/12/07 11:53:33;;;;;;;14.90;7.50;;;;;;;;;;7302994;19;20326;-65
2022/12/07 11:56:19;;;;;;;14.52;8.90;;;;;;;;;;7249772;19;20430;-65
2022/12/07 11:59:06;;;;;;;12.82;6.25;;;;;;;;;;7303053;19;21705;-64
2022/12/07 12:02:02;;;;;;;12.15;6.88;;;;;;;;;;7303191;19;22102;-66
2022/12/07 12:04:39;;;;;;;13.77;6.80;;;;;;;;;;7302945;19;21088;-66
2022/12/07 12:07:13;;;;;;;10.10;6.80;;;;;;;;;;7301814;19;20837;-64
2022/12/07 12:10:13;;;;;;;11.65;6.55;;;;;;;;;;7302602;19;20426;-65
2022/12/07 12:13:21;;;;;;;14.27;8.77;;;;;;;;;;7282265;19;21760;-64
2022/12/07 12:16:22;;;;;;;15.20;7.47;;;;;;;;;;7299213;19;22715;-64
2022/12/07 12:19:20;;;;;;;22.38;10.30;;;;;;;;;;7302243;19;20010;-64
2022/12/07 12:21:53;;;;;;;;;;;;;;;;;;7303449;19;21175;-65
2022/12/07 12:24:28;;;;;;;12.95;6.78;;;;;;;;;;7300245;19;20302;-65
2022/12/07 12:27:06;;;;;;;19.05;6.85;;;;;;;;;;7304024;19;20717;-64
2022/12/07 12:29:39;;;;;;;19.10;9.17;;;;;;;;;;7301416;19;21943;-64
2022/12/07 12:32:31;;;;;;;11.93;6.65;;;;;;;;;;7303937;19;20370;-64
2022/12/07 12:35:23;;;;;;;11.85;6.47;;;;;;;;;;7303288;19;20035;-64
2022/12/07 12:37:54;;;;;;;12.52;7.25;;;;;;;;;;7304096;19;20449;-64
2022/12/07 12:40:21;;;;;;;13.20;7.32;;;;;;;;;;7304288;19;20449;-64
2022/12/07 12:42:57;;;;;;;13.90;8.27;;;;;;;;;;7303843;19;20324;-65
2022/12/07 12:45:31;;;;;;;15.63;8.73;;;;;;;;;;7176826;19;20006;-64
2022/12/07 12:48:01;;;;;;;10.77;6.15;;;;;;;;;;7304007;19;20388;-65
2022/12/07 12:50:38;;;;;;;15.43;8.13;;;;;;;;;;7301871;19;20350;-64
2022/12/07 12:53:26;;;;;;;16.15;8.80;;;;;;;;;;7302030;19;20444;-64
2022/12/07 12:56:24;;;;;;;20.90;10.95;;;;;;;;;;7301668;19;20814;-64
2022/12/07 12:59:23;;;;;;;49.95;20.60;;;;;;;;;;7303839;19;20318;-64
2022/12/07 13:02:23;;;;;;;46.13;25.55;;;;;;;;;;7303240;19;20406;-65
2022/12/07 13:05:09;;;;;;;31.83;15.70;;;;;;;;;;7300415;19;20314;-64
2022/12/07 13:07:47;;;;;;;15.43;9.13;;;;;;;;;;7301226;19;20356;-65
2022/12/07 13:10:32;;;;;;;19.27;9.13;;;;;;;;;;7303377;19;20310;-65
2022/12/07 13:13:03;;;;;;;11.32;6.07;;;;;;;;;;7303489;19;20718;-65
2022/12/07 13:15:40;;;;;;;15.93;5.93;;;;;;;;;;7302109;19;20007;-64
2022/12/07 13:18:29;;;;;;;7.20;3.85;;;;;;;;;;7302347;19;20461;-64
2022/12/07 13:21:06;;;;;;;11.38;4.90;;;;;;;;;;7304234;19;20331;-65
2022/12/07 13:23:45;;;;;;;7.90;4.07;;;;;;;;;;7296690;19;20346;-66
2022/12/07 13:26:22;;;;;;;;;;;;;;;;;;7303408;19;20350;-65
2022/12/07 13:29:13;;;;;;;13.40;4.85;;;;;;;;;;7295059;19;20479;-67
2022/12/07 13:31:43;;;;;;;9.02;5.25;;;;;;;;;;7300145;19;20456;-65
2022/12/07 13:34:46;;;;;;;14.52;6.72;;;;;;;;;;7301054;19;20440;-64
2022/12/07 13:37:25;;;;;;;20.48;10.48;;;;;;;;;;7295523;19;20290;-65
2022/12/07 13:39:56;;;;;;;;;;;;;;;;;;7301381;19;20386;-65
2022/12/07 13:42:33;;;;;;;16.85;8.73;;;;;;;;;;7301336;19;20210;-66
2022/12/07 13:48:44;;;;;;;21.23;10.05;;;;;;;;;;7298676;19;20288;-64
2022/12/07 13:51:28;;;;;;;40.28;17.23;;;;;;;;;;7302036;19;20438;-64
2022/12/07 13:54:09;;;;;;;68.90;29.42;;;;;;;;;;7300924;19;20370;-64
2022/12/07 13:56:39;;;;;;;44.55;19.38;;;;;;;;;;7299450;19;20429;-66
2022/12/07 13:59:21;;;;;;;34.78;16.40;;;;;;;;;;7300309;19;20456;-65
2022/12/07 14:01:50;;;;;;;17.38;8.98;;;;;;;;;;7299106;19;20066;-64
2022/12/07 14:04:32;;;;;;;15.75;8.07;;;;;;;;;;7298414;19;20381;-65
2022/12/07 14:07:17;;;;;;;20.83;10.00;;;;;;;;;;7301007;19;20315;-64
2022/12/07 14:10:01;;;;;;;22.20;11.43;;;;;;;;;;7300663;19;20375;-65
2022/12/07 14:12:31;;;;;;;24.83;11.63;;;;;;;;;;7299286;19;20014;-65
2022/12/07 14:15:02;;;;;;;29.77;14.57;;;;;;;;;;7300519;19;20423;-66
2022/12/07 14:17:30;;;;;;;52.15;21.40;;;;;;;;;;7302167;19;20364;-65
2022/12/07 14:20:04;;;;;;;54.20;23.38;;;;;;;;;;7300378;19;20031;-63
2022/12/07 14:22:38;;;;;;;46.78;27.52;;;;;;;;;;7300210;19;20014;-65
2022/12/07 14:25:13;;;;;;;18.92;9.10;;;;;;;;;;7298090;19;20118;-64
2022/12/07 14:27:55;;;;;;;19.30;11.02;;;;;;;;;;7300533;19;20514;-64
2022/12/07 14:30:33;;;;;;;37.78;20.67;;;;;;;;;;7300552;19;20413;-67
2022/12/07 14:33:05;;;;;;;36.67;21.33;;;;;;;;;;7301331;19;20307;-64
2022/12/07 14:35:33;;;;;;;21.33;14.20;;;;;;;;;;7299579;19;20314;-65
2022/12/07 14:38:01;;;;;;;23.75;11.65;;;;;;;;;;7300011;19;20312;-64
2022/12/07 14:40:30;;;;;;;36.63;17.00;;;;;;;;;;7297937;19;20484;-64
2022/12/07 14:43:05;;;;;;;34.88;18.50;;;;;;;;;;7299731;19;20106;-64
2022/12/07 14:45:33;;;;;;;35.28;18.33;;;;;;;;;;7298417;19;20511;-66
2022/12/07 14:48:00;;;;;;;20.60;10.73;;;;;;;;;;7299550;19;20318;-65
2022/12/07 14:50:53;;;;;;;18.33;10.27;;;;;;;;;;7297568;19;20034;-64
2022/12/07 14:53:47;;;;;;;12.38;8.05;;;;;;;;;;7299599;19;20393;-64
2022/12/07 14:56:22;;;;;;;14.15;7.82;;;;;;;;;;7297893;19;20322;-64
2022/12/07 14:58:49;;;;;;;19.52;10.38;;;;;;;;;;7299367;19;20019;-64
2022/12/07 15:01:17;;;;;;;26.42;12.82;;;;;;;;;;7299419;19;20555;-65
2022/12/07 15:03:45;;;;;;;21.15;11.88;;;;;;;;;;7297548;19;20010;-65
2022/12/07 15:06:16;;;;;;;16.98;9.13;;;;;;;;;;7298616;19;20314;-65
2022/12/07 15:08:44;;;;;;;15.85;8.90;;;;;;;;;;7299026;19;20494;-65
2022/12/07 15:11:17;;;;;;;26.63;12.80;;;;;;;;;;7299685;19;20453;-65
2022/12/07 15:16:31;;;;;;;24.83;14.32;;;;;;;;;;7299821;19;20316;-65
2022/12/07 15:19:25;;;;;;;21.15;11.15;;;;;;;;;;7300904;19;20505;-64
2022/12/07 15:21:58;;;;;;;17.92;9.77;;;;;;;;;;7297687;19;20299;-64
2022/12/07 15:24:26;;;;;;;18.25;10.25;;;;;;;;;;7300413;19;20725;-64
2022/12/07 15:26:54;;;;;;;22.30;13.88;;;;;;;;;;7251712;19;20386;-64
2022/12/07 15:29:23;;;;;;;25.33;14.00;;;;;;;;;;7178954;19;20359;-64
2022/12/07 15:31:51;;;;;;;33.88;15.88;;;;;;;;;;7304512;19;20635;-64
2022/12/07 15:34:28;;;;;;;37.30;18.15;;;;;;;;;;7304515;19;20442;-66
2022/12/07 15:37:08;;;;;;;18.67;11.82;;;;;;;;;;7307851;19;20434;-65